sensor_id;sensor_type;location;lat;lon;timestamp;P1;durP1;ratioP1;P2;durP2;ratioP2
44145;SDS011;29809;52.432;4.780;2022-12-31T00:00:00;6.65;;;1.67;;
44145;SDS011;29809;52.432;4.780;2022-12-31T00:02:25;5.60;;;1.75;;
44145;SDS011;29809;52.432;4.780;2022-12-31T00:04:50;4.75;;;1.65;;
44145;SDS011;29809;52.432;4.780;2022-12-31T00:07:15;4.32;;;1.55;;
44145;SDS011;29809;52.432;4.780;2022-12-31T00:09:40;4.90;;;1.77;;
44145;SDS011;29809;52.432;4.780;2022-12-31T00:12:06;5.30;;;1.30;;
44145;SDS011;29809;52.432;4.780;2022-12-31T00:14:31;4.35;;;1.40;;
44145;SDS011;29809;52.432;4.780;2022-12-31T00:16:56;4.85;;;1.50;;
44145;SDS011;29809;52.432;4.780;2022-12-31T00:19:21;3.72;;;1.17;;
44145;SDS011;29809;52.432;4.780;2022-12-31T00:21:47;4.38;;;1.67;;
44145;SDS011;29809;52.432;4.780;2022-12-31T00:24:12;4.30;;;1.30;;
44145;SDS011;29809;52.432;4.780;2022-12-31T00:26:37;5.18;;;1.83;;
44145;SDS011;29809;52.432;4.780;2022-12-31T00:29:03;4.25;;;1.60;;
44145;SDS011;29809;52.432;4.780;2022-12-31T00:31:29;6.30;;;1.70;;
44145;SDS011;29809;52.432;4.780;2022-12-31T00:33:55;3.20;;;1.17;;
44145;SDS011;29809;52.432;4.780;2022-12-31T00:36:23;4.82;;;1.52;;
44145;SDS011;29809;52.432;4.780;2022-12-31T00:38:49;3.20;;;1.17;;
44145;SDS011;29809;52.432;4.780;2022-12-31T00:41:15;3.50;;;1.17;;
44145;SDS011;29809;52.432;4.780;2022-12-31T00:43:41;3.92;;;1.30;;
44145;SDS011;29809;52.432;4.780;2022-12-31T00:46:06;5.15;;;1.60;;
44145;SDS011;29809;52.432;4.780;2022-12-31T00:48:32;2.55;;;1.30;;
44145;SDS011;29809;52.432;4.780;2022-12-31T00:50:57;4.70;;;1.35;;
44145;SDS011;29809;52.432;4.780;2022-12-31T00:53:24;7.75;;;2.90;;
44145;SDS011;29809;52.432;4.780;2022-12-31T00:55:49;3.72;;;1.20;;
44145;SDS011;29809;52.432;4.780;2022-12-31T00:58:15;3.78;;;1.63;;
44145;SDS011;29809;52.432;4.780;2022-12-31T01:00:40;2.90;;;1.00;;
44145;SDS011;29809;52.432;4.780;2022-12-31T01:03:05;3.90;;;1.33;;
44145;SDS011;29809;52.432;4.780;2022-12-31T01:05:31;3.72;;;1.10;;
44145;SDS011;29809;52.432;4.780;2022-12-31T01:07:57;4.55;;;1.25;;
44145;SDS011;29809;52.432;4.780;2022-12-31T01:10:22;2.85;;;1.05;;
44145;SDS011;29809;52.432;4.780;2022-12-31T01:13:06;3.42;;;0.95;;
44145;SDS011;29809;52.432;4.780;2022-12-31T01:15:32;2.10;;;0.98;;
44145;SDS011;29809;52.432;4.780;2022-12-31T01:17:58;2.55;;;1.17;;
44145;SDS011;29809;52.432;4.780;2022-12-31T01:20:23;3.22;;;1.13;;
44145;SDS011;29809;52.432;4.780;2022-12-31T01:22:48;2.65;;;1.00;;
44145;SDS011;29809;52.432;4.780;2022-12-31T01:25:14;2.40;;;1.20;;
44145;SDS011;29809;52.432;4.780;2022-12-31T01:27:39;4.35;;;1.52;;
44145;SDS011;29809;52.432;4.780;2022-12-31T01:30:04;3.50;;;1.00;;
44145;SDS011;29809;52.432;4.780;2022-12-31T01:32:30;3.42;;;1.25;;
44145;SDS011;29809;52.432;4.780;2022-12-31T01:34:55;2.72;;;1.25;;
44145;SDS011;29809;52.432;4.780;2022-12-31T01:37:20;3.22;;;1.70;;
44145;SDS011;29809;52.432;4.780;2022-12-31T01:39:45;3.72;;;1.15;;
44145;SDS011;29809;52.432;4.780;2022-12-31T01:42:11;2.47;;;1.10;;
44145;SDS011;29809;52.432;4.780;2022-12-31T01:47:04;3.47;;;1.30;;
44145;SDS011;29809;52.432;4.780;2022-12-31T01:52:09;3.97;;;1.10;;
44145;SDS011;29809;52.432;4.780;2022-12-31T01:54:43;4.70;;;1.58;;
44145;SDS011;29809;52.432;4.780;2022-12-31T01:57:10;5.63;;;1.42;;
44145;SDS011;29809;52.432;4.780;2022-12-31T01:59:35;4.68;;;1.38;;
44145;SDS011;29809;52.432;4.780;2022-12-31T02:02:01;3.45;;;1.52;;
44145;SDS011;29809;52.432;4.780;2022-12-31T02:04:27;5.50;;;1.65;;
44145;SDS011;29809;52.432;4.780;2022-12-31T02:06:56;2.42;;;1.20;;
44145;SDS011;29809;52.432;4.780;2022-12-31T02:09:23;5.30;;;1.30;;
44145;SDS011;29809;52.432;4.780;2022-12-31T02:11:49;4.38;;;1.42;;
44145;SDS011;29809;52.432;4.780;2022-12-31T02:14:18;4.47;;;1.80;;
44145;SDS011;29809;52.432;4.780;2022-12-31T02:16:51;3.33;;;1.10;;
44145;SDS011;29809;52.432;4.780;2022-12-31T02:22:02;3.15;;;1.20;;
44145;SDS011;29809;52.432;4.780;2022-12-31T02:31:57;3.63;;;1.27;;
44145;SDS011;29809;52.432;4.780;2022-12-31T02:34:35;6.18;;;2.20;;
44145;SDS011;29809;52.432;4.780;2022-12-31T02:37:02;2.70;;;1.42;;
44145;SDS011;29809;52.432;4.780;2022-12-31T02:39:28;4.68;;;1.55;;
44145;SDS011;29809;52.432;4.780;2022-12-31T02:41:54;2.45;;;1.10;;
44145;SDS011;29809;52.432;4.780;2022-12-31T02:44:26;4.60;;;1.45;;
44145;SDS011;29809;52.432;4.780;2022-12-31T02:49:19;2.30;;;1.13;;
44145;SDS011;29809;52.432;4.780;2022-12-31T02:54:16;2.33;;;1.33;;
44145;SDS011;29809;52.432;4.780;2022-12-31T02:59:11;3.75;;;1.25;;
44145;SDS011;29809;52.432;4.780;2022-12-31T03:01:59;3.33;;;1.65;;
44145;SDS011;29809;52.432;4.780;2022-12-31T03:04:41;4.22;;;1.33;;
44145;SDS011;29809;52.432;4.780;2022-12-31T03:07:11;2.13;;;1.00;;
44145;SDS011;29809;52.432;4.780;2022-12-31T03:09:37;2.83;;;1.17;;
44145;SDS011;29809;52.432;4.780;2022-12-31T03:12:04;7.97;;;1.88;;
44145;SDS011;29809;52.432;4.780;2022-12-31T03:14:49;2.25;;;1.15;;
44145;SDS011;29809;52.432;4.780;2022-12-31T03:17:14;2.75;;;1.02;;
44145;SDS011;29809;52.432;4.780;2022-12-31T03:19:39;3.65;;;1.35;;
44145;SDS011;29809;52.432;4.780;2022-12-31T03:22:23;3.10;;;1.15;;
44145;SDS011;29809;52.432;4.780;2022-12-31T03:24:52;3.30;;;1.00;;
44145;SDS011;29809;52.432;4.780;2022-12-31T03:27:36;3.08;;;1.13;;
44145;SDS011;29809;52.432;4.780;2022-12-31T03:30:02;1.77;;;1.05;;
44145;SDS011;29809;52.432;4.780;2022-12-31T03:32:27;2.47;;;1.13;;
44145;SDS011;29809;52.432;4.780;2022-12-31T03:34:53;2.47;;;1.10;;
44145;SDS011;29809;52.432;4.780;2022-12-31T03:37:18;2.95;;;1.35;;
44145;SDS011;29809;52.432;4.780;2022-12-31T03:39:43;3.95;;;1.25;;
44145;SDS011;29809;52.432;4.780;2022-12-31T03:42:08;2.70;;;1.55;;
44145;SDS011;29809;52.432;4.780;2022-12-31T03:44:34;1.95;;;1.10;;
44145;SDS011;29809;52.432;4.780;2022-12-31T03:46:59;3.50;;;1.40;;
44145;SDS011;29809;52.432;4.780;2022-12-31T03:49:24;3.08;;;1.30;;
44145;SDS011;29809;52.432;4.780;2022-12-31T03:51:49;6.15;;;1.63;;
44145;SDS011;29809;52.432;4.780;2022-12-31T03:54:14;3.58;;;1.27;;
44145;SDS011;29809;52.432;4.780;2022-12-31T03:56:40;3.13;;;1.20;;
44145;SDS011;29809;52.432;4.780;2022-12-31T03:59:05;3.40;;;1.27;;
44145;SDS011;29809;52.432;4.780;2022-12-31T04:01:30;2.75;;;1.17;;
44145;SDS011;29809;52.432;4.780;2022-12-31T04:03:55;3.03;;;1.10;;
44145;SDS011;29809;52.432;4.780;2022-12-31T04:06:21;2.13;;;1.10;;
44145;SDS011;29809;52.432;4.780;2022-12-31T04:08:46;2.65;;;1.05;;
44145;SDS011;29809;52.432;4.780;2022-12-31T04:11:11;2.45;;;1.13;;
44145;SDS011;29809;52.432;4.780;2022-12-31T04:13:36;8.27;;;1.40;;
44145;SDS011;29809;52.432;4.780;2022-12-31T04:16:02;2.60;;;1.33;;
44145;SDS011;29809;52.432;4.780;2022-12-31T04:18:27;2.72;;;1.10;;
44145;SDS011;29809;52.432;4.780;2022-12-31T04:20:52;5.60;;;1.30;;
44145;SDS011;29809;52.432;4.780;2022-12-31T04:23:17;5.30;;;1.15;;
44145;SDS011;29809;52.432;4.780;2022-12-31T04:25:42;3.33;;;1.20;;
44145;SDS011;29809;52.432;4.780;2022-12-31T04:28:08;3.97;;;1.58;;
44145;SDS011;29809;52.432;4.780;2022-12-31T04:30:33;2.78;;;1.10;;
44145;SDS011;29809;52.432;4.780;2022-12-31T04:32:58;3.35;;;1.38;;
44145;SDS011;29809;52.432;4.780;2022-12-31T04:35:23;2.85;;;1.27;;
44145;SDS011;29809;52.432;4.780;2022-12-31T04:37:49;2.53;;;1.10;;
44145;SDS011;29809;52.432;4.780;2022-12-31T04:40:14;4.95;;;1.58;;
44145;SDS011;29809;52.432;4.780;2022-12-31T04:42:39;3.55;;;0.98;;
44145;SDS011;29809;52.432;4.780;2022-12-31T04:45:04;2.70;;;1.00;;
44145;SDS011;29809;52.432;4.780;2022-12-31T04:47:30;2.40;;;1.00;;
44145;SDS011;29809;52.432;4.780;2022-12-31T04:49:55;2.42;;;1.00;;
44145;SDS011;29809;52.432;4.780;2022-12-31T04:52:20;3.53;;;1.13;;
44145;SDS011;29809;52.432;4.780;2022-12-31T04:54:46;2.08;;;1.00;;
44145;SDS011;29809;52.432;4.780;2022-12-31T04:57:11;1.38;;;0.80;;
44145;SDS011;29809;52.432;4.780;2022-12-31T04:59:36;2.88;;;1.20;;
44145;SDS011;29809;52.432;4.780;2022-12-31T05:02:01;2.88;;;0.90;;
44145;SDS011;29809;52.432;4.780;2022-12-31T05:04:27;3.67;;;0.90;;
44145;SDS011;29809;52.432;4.780;2022-12-31T05:06:52;2.63;;;1.25;;
44145;SDS011;29809;52.432;4.780;2022-12-31T05:09:17;3.28;;;1.00;;
44145;SDS011;29809;52.432;4.780;2022-12-31T05:11:43;2.00;;;0.90;;
44145;SDS011;29809;52.432;4.780;2022-12-31T05:14:09;2.65;;;1.23;;
44145;SDS011;29809;52.432;4.780;2022-12-31T05:16:34;2.00;;;0.80;;
44145;SDS011;29809;52.432;4.780;2022-12-31T05:18:59;3.13;;;1.02;;
44145;SDS011;29809;52.432;4.780;2022-12-31T05:21:25;2.85;;;1.10;;
44145;SDS011;29809;52.432;4.780;2022-12-31T05:23:50;2.00;;;1.10;;
44145;SDS011;29809;52.432;4.780;2022-12-31T05:26:15;2.15;;;0.85;;
44145;SDS011;29809;52.432;4.780;2022-12-31T05:28:41;2.63;;;1.02;;
44145;SDS011;29809;52.432;4.780;2022-12-31T05:31:06;1.92;;;1.00;;
44145;SDS011;29809;52.432;4.780;2022-12-31T05:33:31;2.28;;;0.95;;
44145;SDS011;29809;52.432;4.780;2022-12-31T05:35:57;2.60;;;0.90;;
44145;SDS011;29809;52.432;4.780;2022-12-31T05:38:22;1.98;;;0.90;;
44145;SDS011;29809;52.432;4.780;2022-12-31T05:40:48;2.95;;;0.85;;
44145;SDS011;29809;52.432;4.780;2022-12-31T05:43:13;3.22;;;1.13;;
44145;SDS011;29809;52.432;4.780;2022-12-31T05:45:38;1.25;;;0.80;;
44145;SDS011;29809;52.432;4.780;2022-12-31T05:48:03;1.95;;;0.85;;
44145;SDS011;29809;52.432;4.780;2022-12-31T05:50:29;2.25;;;0.88;;
44145;SDS011;29809;52.432;4.780;2022-12-31T05:52:54;1.77;;;1.20;;
44145;SDS011;29809;52.432;4.780;2022-12-31T05:55:20;7.05;;;1.55;;
44145;SDS011;29809;52.432;4.780;2022-12-31T05:57:45;1.17;;;0.75;;
44145;SDS011;29809;52.432;4.780;2022-12-31T06:00:10;2.00;;;1.00;;
44145;SDS011;29809;52.432;4.780;2022-12-31T06:02:36;1.42;;;0.70;;
44145;SDS011;29809;52.432;4.780;2022-12-31T06:05:01;2.28;;;0.80;;
44145;SDS011;29809;52.432;4.780;2022-12-31T06:07:26;1.00;;;0.90;;
44145;SDS011;29809;52.432;4.780;2022-12-31T06:09:51;2.08;;;0.98;;
44145;SDS011;29809;52.432;4.780;2022-12-31T06:12:17;1.00;;;0.80;;
44145;SDS011;29809;52.432;4.780;2022-12-31T06:14:42;1.10;;;0.63;;
44145;SDS011;29809;52.432;4.780;2022-12-31T06:17:07;1.45;;;0.90;;
44145;SDS011;29809;52.432;4.780;2022-12-31T06:19:33;1.17;;;0.63;;
44145;SDS011;29809;52.432;4.780;2022-12-31T06:21:58;1.15;;;0.70;;
44145;SDS011;29809;52.432;4.780;2022-12-31T06:24:23;1.70;;;0.85;;
44145;SDS011;29809;52.432;4.780;2022-12-31T06:26:48;2.03;;;0.70;;
44145;SDS011;29809;52.432;4.780;2022-12-31T06:29:14;0.85;;;0.65;;
44145;SDS011;29809;52.432;4.780;2022-12-31T06:31:39;1.15;;;0.70;;
44145;SDS011;29809;52.432;4.780;2022-12-31T06:34:05;1.63;;;0.80;;
44145;SDS011;29809;52.432;4.780;2022-12-31T06:36:30;1.80;;;0.85;;
44145;SDS011;29809;52.432;4.780;2022-12-31T06:38:56;2.75;;;0.80;;
44145;SDS011;29809;52.432;4.780;2022-12-31T06:41:21;1.08;;;0.70;;
44145;SDS011;29809;52.432;4.780;2022-12-31T06:43:46;1.48;;;0.80;;
44145;SDS011;29809;52.432;4.780;2022-12-31T06:46:13;6.68;;;1.13;;
44145;SDS011;29809;52.432;4.780;2022-12-31T06:48:38;1.40;;;1.00;;
44145;SDS011;29809;52.432;4.780;2022-12-31T06:51:10;3.67;;;0.90;;
44145;SDS011;29809;52.432;4.780;2022-12-31T06:53:35;2.42;;;0.77;;
44145;SDS011;29809;52.432;4.780;2022-12-31T06:56:04;2.08;;;0.98;;
44145;SDS011;29809;52.432;4.780;2022-12-31T06:58:29;2.75;;;1.00;;
44145;SDS011;29809;52.432;4.780;2022-12-31T07:00:58;102.70;;;24.40;;
44145;SDS011;29809;52.432;4.780;2022-12-31T07:10:47;101.25;;;31.70;;
44145;SDS011;29809;52.432;4.780;2022-12-31T07:13:29;69.72;;;26.48;;
44145;SDS011;29809;52.432;4.780;2022-12-31T07:21:09;47.22;;;19.30;;
44145;SDS011;29809;52.432;4.780;2022-12-31T07:23:35;40.35;;;16.80;;
44145;SDS011;29809;52.432;4.780;2022-12-31T07:26:05;34.33;;;13.65;;
44145;SDS011;29809;52.432;4.780;2022-12-31T07:28:42;27.58;;;11.55;;
44145;SDS011;29809;52.432;4.780;2022-12-31T07:31:12;27.17;;;10.45;;
44145;SDS011;29809;52.432;4.780;2022-12-31T07:33:59;25.40;;;10.88;;
44145;SDS011;29809;52.432;4.780;2022-12-31T07:46:57;15.38;;;5.20;;
44145;SDS011;29809;52.432;4.780;2022-12-31T07:49:23;9.30;;;4.38;;
44145;SDS011;29809;52.432;4.780;2022-12-31T07:51:49;9.75;;;4.93;;
44145;SDS011;29809;52.432;4.780;2022-12-31T07:54:15;10.40;;;4.15;;
44145;SDS011;29809;52.432;4.780;2022-12-31T07:56:40;5.65;;;2.90;;
44145;SDS011;29809;52.432;4.780;2022-12-31T08:04:39;6.05;;;2.13;;
44145;SDS011;29809;52.432;4.780;2022-12-31T08:07:18;3.80;;;2.13;;
44145;SDS011;29809;52.432;4.780;2022-12-31T08:09:49;5.18;;;2.30;;
44145;SDS011;29809;52.432;4.780;2022-12-31T08:12:18;6.22;;;2.10;;
44145;SDS011;29809;52.432;4.780;2022-12-31T08:14:45;5.20;;;2.05;;
44145;SDS011;29809;52.432;4.780;2022-12-31T08:17:11;3.17;;;1.63;;
44145;SDS011;29809;52.432;4.780;2022-12-31T08:19:37;3.90;;;1.77;;
44145;SDS011;29809;52.432;4.780;2022-12-31T08:22:06;3.58;;;1.60;;
44145;SDS011;29809;52.432;4.780;2022-12-31T08:29:28;1.52;;;1.02;;
44145;SDS011;29809;52.432;4.780;2022-12-31T08:37:05;3.03;;;1.02;;
44145;SDS011;29809;52.432;4.780;2022-12-31T08:42:04;3.53;;;1.10;;
44145;SDS011;29809;52.432;4.780;2022-12-31T08:44:46;2.72;;;1.08;;
44145;SDS011;29809;52.432;4.780;2022-12-31T08:47:30;6.53;;;1.75;;
44145;SDS011;29809;52.432;4.780;2022-12-31T08:49:57;4.65;;;1.35;;
44145;SDS011;29809;52.432;4.780;2022-12-31T08:52:23;2.33;;;1.27;;
44145;SDS011;29809;52.432;4.780;2022-12-31T08:54:49;4.15;;;1.38;;
44145;SDS011;29809;52.432;4.780;2022-12-31T08:57:32;5.57;;;1.77;;
44145;SDS011;29809;52.432;4.780;2022-12-31T09:00:12;5.30;;;2.00;;
44145;SDS011;29809;52.432;4.780;2022-12-31T09:12:42;4.38;;;1.70;;
44145;SDS011;29809;52.432;4.780;2022-12-31T09:15:30;4.03;;;1.52;;
44145;SDS011;29809;52.432;4.780;2022-12-31T09:17:53;2.65;;;1.13;;
44145;SDS011;29809;52.432;4.780;2022-12-31T09:20:23;4.00;;;1.40;;
44145;SDS011;29809;52.432;4.780;2022-12-31T09:22:49;3.00;;;1.23;;
44145;SDS011;29809;52.432;4.780;2022-12-31T09:25:16;6.22;;;1.85;;
44145;SDS011;29809;52.432;4.780;2022-12-31T09:30:16;6.20;;;1.90;;
44145;SDS011;29809;52.432;4.780;2022-12-31T09:50:57;6.30;;;2.03;;
44145;SDS011;29809;52.432;4.780;2022-12-31T09:55:52;9.90;;;1.73;;
44145;SDS011;29809;52.432;4.780;2022-12-31T10:01:02;9.88;;;2.72;;
44145;SDS011;29809;52.432;4.780;2022-12-31T10:03:39;9.05;;;2.15;;
44145;SDS011;29809;52.432;4.780;2022-12-31T10:06:20;5.10;;;1.65;;
44145;SDS011;29809;52.432;4.780;2022-12-31T10:08:50;5.75;;;1.80;;
44145;SDS011;29809;52.432;4.780;2022-12-31T10:16:44;7.07;;;1.95;;
44145;SDS011;29809;52.432;4.780;2022-12-31T10:30:02;4.28;;;1.90;;
44145;SDS011;29809;52.432;4.780;2022-12-31T10:32:34;7.18;;;2.90;;
44145;SDS011;29809;52.432;4.780;2022-12-31T10:42:49;5.57;;;2.38;;
44145;SDS011;29809;52.432;4.780;2022-12-31T10:50:37;7.30;;;3.17;;
44145;SDS011;29809;52.432;4.780;2022-12-31T10:55:59;9.68;;;3.40;;
44145;SDS011;29809;52.432;4.780;2022-12-31T11:00:58;7.65;;;3.28;;
44145;SDS011;29809;52.432;4.780;2022-12-31T11:08:45;8.02;;;2.95;;
44145;SDS011;29809;52.432;4.780;2022-12-31T11:11:36;7.45;;;2.10;;
44145;SDS011;29809;52.432;4.780;2022-12-31T11:37:31;6.20;;;2.25;;
44145;SDS011;29809;52.432;4.780;2022-12-31T11:45:18;6.15;;;2.17;;
44145;SDS011;29809;52.432;4.780;2022-12-31T11:47:48;5.97;;;1.90;;
44145;SDS011;29809;52.432;4.780;2022-12-31T11:52:49;8.60;;;2.65;;
44145;SDS011;29809;52.432;4.780;2022-12-31T11:55:36;4.68;;;2.03;;
44145;SDS011;29809;52.432;4.780;2022-12-31T11:58:10;7.07;;;2.33;;
44145;SDS011;29809;52.432;4.780;2022-12-31T12:00:36;7.25;;;1.98;;
44145;SDS011;29809;52.432;4.780;2022-12-31T12:03:03;5.00;;;2.58;;
44145;SDS011;29809;52.432;4.780;2022-12-31T12:05:29;7.85;;;2.60;;
44145;SDS011;29809;52.432;4.780;2022-12-31T12:07:55;6.22;;;2.22;;
44145;SDS011;29809;52.432;4.780;2022-12-31T12:10:23;7.63;;;2.60;;
44145;SDS011;29809;52.432;4.780;2022-12-31T12:12:49;6.03;;;2.08;;
44145;SDS011;29809;52.432;4.780;2022-12-31T12:15:25;5.78;;;2.35;;
44145;SDS011;29809;52.432;4.780;2022-12-31T12:17:52;7.75;;;2.42;;
44145;SDS011;29809;52.432;4.780;2022-12-31T12:20:18;7.45;;;2.30;;
44145;SDS011;29809;52.432;4.780;2022-12-31T12:22:52;7.20;;;2.83;;
44145;SDS011;29809;52.432;4.780;2022-12-31T12:25:19;6.85;;;2.50;;
44145;SDS011;29809;52.432;4.780;2022-12-31T12:27:44;8.40;;;1.90;;
44145;SDS011;29809;52.432;4.780;2022-12-31T12:30:23;7.30;;;2.70;;
44145;SDS011;29809;52.432;4.780;2022-12-31T12:33:12;6.13;;;1.80;;
44145;SDS011;29809;52.432;4.780;2022-12-31T12:35:37;5.32;;;2.35;;
44145;SDS011;29809;52.432;4.780;2022-12-31T12:40:28;4.10;;;1.80;;
44145;SDS011;29809;52.432;4.780;2022-12-31T12:42:54;4.63;;;1.60;;
44145;SDS011;29809;52.432;4.780;2022-12-31T12:45:20;4.35;;;1.70;;
44145;SDS011;29809;52.432;4.780;2022-12-31T12:47:47;4.72;;;1.58;;
44145;SDS011;29809;52.432;4.780;2022-12-31T12:50:17;6.35;;;1.88;;
44145;SDS011;29809;52.432;4.780;2022-12-31T12:55:12;2.83;;;1.50;;
44145;SDS011;29809;52.432;4.780;2022-12-31T13:00:09;2.92;;;1.40;;
44145;SDS011;29809;52.432;4.780;2022-12-31T13:07:35;4.13;;;1.40;;
44145;SDS011;29809;52.432;4.780;2022-12-31T13:20:43;4.95;;;1.55;;
44145;SDS011;29809;52.432;4.780;2022-12-31T13:25:52;4.07;;;1.90;;
44145;SDS011;29809;52.432;4.780;2022-12-31T13:28:19;4.10;;;1.60;;
44145;SDS011;29809;52.432;4.780;2022-12-31T13:30:47;3.22;;;1.73;;
44145;SDS011;29809;52.432;4.780;2022-12-31T13:33:23;4.30;;;1.23;;
44145;SDS011;29809;52.432;4.780;2022-12-31T13:35:59;2.72;;;1.50;;
44145;SDS011;29809;52.432;4.780;2022-12-31T13:39:10;4.35;;;1.50;;
44145;SDS011;29809;52.432;4.780;2022-12-31T13:51:54;5.80;;;1.70;;
44145;SDS011;29809;52.432;4.780;2022-12-31T13:56:51;5.57;;;1.60;;
44145;SDS011;29809;52.432;4.780;2022-12-31T13:59:26;3.67;;;1.77;;
44145;SDS011;29809;52.432;4.780;2022-12-31T14:01:54;3.03;;;1.35;;
44145;SDS011;29809;52.432;4.780;2022-12-31T14:07:09;3.67;;;1.80;;
44145;SDS011;29809;52.432;4.780;2022-12-31T14:09:36;3.17;;;1.98;;
44145;SDS011;29809;52.432;4.780;2022-12-31T14:17:32;6.35;;;2.33;;
44145;SDS011;29809;52.432;4.780;2022-12-31T14:24:56;6.07;;;2.20;;
44145;SDS011;29809;52.432;4.780;2022-12-31T14:27:25;5.32;;;2.10;;
44145;SDS011;29809;52.432;4.780;2022-12-31T14:29:53;4.30;;;2.38;;
44145;SDS011;29809;52.432;4.780;2022-12-31T14:37:32;5.35;;;2.10;;
44145;SDS011;29809;52.432;4.780;2022-12-31T14:40:04;6.18;;;2.60;;
44145;SDS011;29809;52.432;4.780;2022-12-31T14:42:37;6.28;;;2.45;;
44145;SDS011;29809;52.432;4.780;2022-12-31T14:45:16;5.57;;;2.92;;
44145;SDS011;29809;52.432;4.780;2022-12-31T14:47:59;5.03;;;2.05;;
44145;SDS011;29809;52.432;4.780;2022-12-31T14:50:28;5.55;;;2.42;;
44145;SDS011;29809;52.432;4.780;2022-12-31T14:53:05;3.47;;;1.65;;
44145;SDS011;29809;52.432;4.780;2022-12-31T14:55:31;3.53;;;2.05;;
44145;SDS011;29809;52.432;4.780;2022-12-31T14:57:59;7.13;;;2.60;;
44145;SDS011;29809;52.432;4.780;2022-12-31T15:00:29;8.30;;;2.22;;
44145;SDS011;29809;52.432;4.780;2022-12-31T15:02:59;6.47;;;2.40;;
44145;SDS011;29809;52.432;4.780;2022-12-31T15:05:29;5.22;;;1.92;;
44145;SDS011;29809;52.432;4.780;2022-12-31T15:13:12;5.75;;;2.17;;
44145;SDS011;29809;52.432;4.780;2022-12-31T15:16:43;4.70;;;1.92;;
44145;SDS011;29809;52.432;4.780;2022-12-31T15:18:41;6.18;;;2.22;;
44145;SDS011;29809;52.432;4.780;2022-12-31T15:23:54;6.65;;;2.20;;
44145;SDS011;29809;52.432;4.780;2022-12-31T15:26:26;8.18;;;2.90;;
44145;SDS011;29809;52.432;4.780;2022-12-31T15:29:01;8.32;;;2.20;;
44145;SDS011;29809;52.432;4.780;2022-12-31T15:31:27;5.63;;;2.10;;
44145;SDS011;29809;52.432;4.780;2022-12-31T15:36:23;5.68;;;2.05;;
44145;SDS011;29809;52.432;4.780;2022-12-31T15:38:48;5.05;;;2.17;;
44145;SDS011;29809;52.432;4.780;2022-12-31T15:43:44;4.70;;;2.10;;
44145;SDS011;29809;52.432;4.780;2022-12-31T15:46:18;7.45;;;2.17;;
44145;SDS011;29809;52.432;4.780;2022-12-31T15:48:46;4.18;;;1.67;;
44145;SDS011;29809;52.432;4.780;2022-12-31T15:51:16;6.80;;;2.30;;
44145;SDS011;29809;52.432;4.780;2022-12-31T15:53:45;5.05;;;2.28;;
44145;SDS011;29809;52.432;4.780;2022-12-31T15:59:00;4.95;;;2.50;;
44145;SDS011;29809;52.432;4.780;2022-12-31T16:01:30;3.35;;;1.98;;
44145;SDS011;29809;52.432;4.780;2022-12-31T16:06:21;5.45;;;1.90;;
44145;SDS011;29809;52.432;4.780;2022-12-31T16:08:48;3.88;;;1.98;;
44145;SDS011;29809;52.432;4.780;2022-12-31T16:11:14;5.10;;;1.95;;
44145;SDS011;29809;52.432;4.780;2022-12-31T16:13:40;5.30;;;2.38;;
44145;SDS011;29809;52.432;4.780;2022-12-31T16:16:07;3.05;;;1.95;;
44145;SDS011;29809;52.432;4.780;2022-12-31T16:18:42;4.18;;;2.67;;
44145;SDS011;29809;52.432;4.780;2022-12-31T16:23:53;6.88;;;2.88;;
44145;SDS011;29809;52.432;4.780;2022-12-31T16:26:19;5.72;;;2.80;;
44145;SDS011;29809;52.432;4.780;2022-12-31T16:28:46;8.00;;;2.80;;
44145;SDS011;29809;52.432;4.780;2022-12-31T16:31:18;6.13;;;3.00;;
44145;SDS011;29809;52.432;4.780;2022-12-31T16:33:46;5.03;;;2.60;;
44145;SDS011;29809;52.432;4.780;2022-12-31T16:36:21;8.95;;;2.90;;
44145;SDS011;29809;52.432;4.780;2022-12-31T16:38:47;4.90;;;2.95;;
44145;SDS011;29809;52.432;4.780;2022-12-31T16:43:41;7.72;;;3.25;;
44145;SDS011;29809;52.432;4.780;2022-12-31T16:48:32;6.82;;;4.20;;
44145;SDS011;29809;52.432;4.780;2022-12-31T16:50:58;8.20;;;4.70;;
44145;SDS011;29809;52.432;4.780;2022-12-31T16:53:24;7.68;;;3.65;;
44145;SDS011;29809;52.432;4.780;2022-12-31T16:55:52;9.27;;;3.55;;
44145;SDS011;29809;52.432;4.780;2022-12-31T16:58:20;7.13;;;3.50;;
44145;SDS011;29809;52.432;4.780;2022-12-31T17:00:48;11.25;;;4.25;;
44145;SDS011;29809;52.432;4.780;2022-12-31T17:03:17;6.50;;;3.15;;
44145;SDS011;29809;52.432;4.780;2022-12-31T17:08:21;7.28;;;3.42;;
44145;SDS011;29809;52.432;4.780;2022-12-31T17:10:47;5.97;;;3.55;;
44145;SDS011;29809;52.432;4.780;2022-12-31T17:13:19;5.38;;;3.50;;
44145;SDS011;29809;52.432;4.780;2022-12-31T17:15:45;7.05;;;4.03;;
44145;SDS011;29809;52.432;4.780;2022-12-31T17:18:18;7.00;;;3.67;;
44145;SDS011;29809;52.432;4.780;2022-12-31T17:20:44;8.50;;;4.05;;
44145;SDS011;29809;52.432;4.780;2022-12-31T17:23:10;7.05;;;3.95;;
44145;SDS011;29809;52.432;4.780;2022-12-31T17:25:39;6.78;;;3.88;;
44145;SDS011;29809;52.432;4.780;2022-12-31T17:28:06;8.07;;;3.65;;
44145;SDS011;29809;52.432;4.780;2022-12-31T17:33:42;7.20;;;3.80;;
44145;SDS011;29809;52.432;4.780;2022-12-31T17:35:42;7.45;;;3.80;;
44145;SDS011;29809;52.432;4.780;2022-12-31T17:43:33;8.85;;;3.92;;
44145;SDS011;29809;52.432;4.780;2022-12-31T17:45:59;5.78;;;3.70;;
44145;SDS011;29809;52.432;4.780;2022-12-31T17:48:24;6.57;;;4.03;;
44145;SDS011;29809;52.432;4.780;2022-12-31T17:50:53;6.10;;;3.95;;
44145;SDS011;29809;52.432;4.780;2022-12-31T17:53:19;8.15;;;3.78;;
44145;SDS011;29809;52.432;4.780;2022-12-31T17:55:45;6.75;;;3.85;;
44145;SDS011;29809;52.432;4.780;2022-12-31T17:58:31;8.05;;;4.10;;
44145;SDS011;29809;52.432;4.780;2022-12-31T18:00:57;7.70;;;4.00;;
44145;SDS011;29809;52.432;4.780;2022-12-31T18:03:22;6.80;;;3.78;;
44145;SDS011;29809;52.432;4.780;2022-12-31T18:05:48;7.47;;;4.43;;
44145;SDS011;29809;52.432;4.780;2022-12-31T18:08:13;8.32;;;4.13;;
44145;SDS011;29809;52.432;4.780;2022-12-31T18:10:39;8.15;;;4.05;;
44145;SDS011;29809;52.432;4.780;2022-12-31T18:13:05;10.57;;;4.28;;
44145;SDS011;29809;52.432;4.780;2022-12-31T18:15:31;5.38;;;4.10;;
44145;SDS011;29809;52.432;4.780;2022-12-31T18:17:56;6.93;;;3.80;;
44145;SDS011;29809;52.432;4.780;2022-12-31T18:20:21;6.15;;;3.78;;
44145;SDS011;29809;52.432;4.780;2022-12-31T18:22:47;4.68;;;4.10;;
44145;SDS011;29809;52.432;4.780;2022-12-31T18:25:15;8.05;;;4.25;;
44145;SDS011;29809;52.432;4.780;2022-12-31T18:27:40;9.30;;;4.45;;
44145;SDS011;29809;52.432;4.780;2022-12-31T18:30:07;4.85;;;4.18;;
44145;SDS011;29809;52.432;4.780;2022-12-31T18:32:33;7.57;;;4.20;;
44145;SDS011;29809;52.432;4.780;2022-12-31T18:34:59;6.30;;;3.78;;
44145;SDS011;29809;52.432;4.780;2022-12-31T18:37:26;7.07;;;4.80;;
44145;SDS011;29809;52.432;4.780;2022-12-31T18:39:52;6.13;;;4.07;;
44145;SDS011;29809;52.432;4.780;2022-12-31T18:42:17;7.20;;;4.20;;
44145;SDS011;29809;52.432;4.780;2022-12-31T18:44:43;8.60;;;4.35;;
44145;SDS011;29809;52.432;4.780;2022-12-31T18:47:12;8.52;;;4.80;;
44145;SDS011;29809;52.432;4.780;2022-12-31T18:49:38;8.45;;;4.60;;
44145;SDS011;29809;52.432;4.780;2022-12-31T18:52:04;10.13;;;4.85;;
44145;SDS011;29809;52.432;4.780;2022-12-31T18:54:29;10.38;;;4.07;;
44145;SDS011;29809;52.432;4.780;2022-12-31T18:56:54;6.55;;;3.90;;
44145;SDS011;29809;52.432;4.780;2022-12-31T18:59:20;7.80;;;4.22;;
44145;SDS011;29809;52.432;4.780;2022-12-31T19:01:45;7.10;;;4.28;;
44145;SDS011;29809;52.432;4.780;2022-12-31T19:04:14;9.45;;;4.43;;
44145;SDS011;29809;52.432;4.780;2022-12-31T19:06:40;6.57;;;4.25;;
44145;SDS011;29809;52.432;4.780;2022-12-31T19:09:05;10.80;;;4.60;;
44145;SDS011;29809;52.432;4.780;2022-12-31T19:11:31;6.30;;;4.72;;
44145;SDS011;29809;52.432;4.780;2022-12-31T19:14:12;5.93;;;4.38;;